sensor_id;sensor_type;location;lat;lon;timestamp;P1;durP1;ratioP1;P2;durP2;ratioP2
46158;SDS011;31888;44.512;26.104;2022-09-09T00:01:08;18.50;;;11.02;;
46158;SDS011;31888;44.512;26.104;2022-09-09T00:03:34;21.70;;;11.38;;
46158;SDS011;31888;44.512;26.104;2022-09-09T00:05:51;15.13;;;10.95;;
46158;SDS011;31888;44.512;26.104;2022-09-09T00:08:02;22.40;;;12.27;;
46158;SDS011;31888;44.512;26.104;2022-09-09T00:10:12;14.80;;;10.50;;
46158;SDS011;31888;44.512;26.104;2022-09-09T00:12:27;17.77;;;12.23;;
46158;SDS011;31888;44.512;26.104;2022-09-09T00:14:39;14.15;;;10.00;;
46158;SDS011;31888;44.512;26.104;2022-09-09T00:16:51;13.13;;;10.10;;
46158;SDS011;31888;44.512;26.104;2022-09-09T00:19:00;17.67;;;10.80;;
46158;SDS011;31888;44.512;26.104;2022-09-09T00:21:08;12.13;;;9.03;;
46158;SDS011;31888;44.512;26.104;2022-09-09T00:23:19;17.00;;;10.93;;
46158;SDS011;31888;44.512;26.104;2022-09-09T00:25:29;13.27;;;9.80;;
46158;SDS011;31888;44.512;26.104;2022-09-09T00:27:41;13.63;;;9.55;;
46158;SDS011;31888;44.512;26.104;2022-09-09T00:29:51;21.30;;;12.02;;
46158;SDS011;31888;44.512;26.104;2022-09-09T00:32:00;18.52;;;11.57;;
46158;SDS011;31888;44.512;26.104;2022-09-09T00:34:13;14.63;;;11.80;;
46158;SDS011;31888;44.512;26.104;2022-09-09T00:36:20;21.70;;;11.98;;
46158;SDS011;31888;44.512;26.104;2022-09-09T00:38:28;15.95;;;11.35;;
46158;SDS011;31888;44.512;26.104;2022-09-09T00:40:38;20.00;;;10.73;;
46158;SDS011;31888;44.512;26.104;2022-09-09T00:42:52;15.45;;;9.80;;
46158;SDS011;31888;44.512;26.104;2022-09-09T00:45:09;17.45;;;9.35;;
46158;SDS011;31888;44.512;26.104;2022-09-09T00:47:35;16.17;;;9.80;;
46158;SDS011;31888;44.512;26.104;2022-09-09T00:49:47;15.75;;;9.95;;
46158;SDS011;31888;44.512;26.104;2022-09-09T00:52:08;22.77;;;13.32;;
46158;SDS011;31888;44.512;26.104;2022-09-09T00:54:28;23.35;;;13.98;;
46158;SDS011;31888;44.512;26.104;2022-09-09T00:56:37;23.02;;;14.07;;
46158;SDS011;31888;44.512;26.104;2022-09-09T00:58:52;22.80;;;14.70;;
46158;SDS011;31888;44.512;26.104;2022-09-09T01:01:04;22.25;;;14.07;;
46158;SDS011;31888;44.512;26.104;2022-09-09T01:03:24;25.30;;;13.95;;
46158;SDS011;31888;44.512;26.104;2022-09-09T01:05:37;21.10;;;13.50;;
46158;SDS011;31888;44.512;26.104;2022-09-09T01:07:48;27.50;;;14.55;;
46158;SDS011;31888;44.512;26.104;2022-09-09T01:09:59;27.10;;;15.35;;
46158;SDS011;31888;44.512;26.104;2022-09-09T01:14:24;22.48;;;13.35;;
46158;SDS011;31888;44.512;26.104;2022-09-09T01:16:40;18.35;;;11.98;;
46158;SDS011;31888;44.512;26.104;2022-09-09T01:18:47;23.38;;;12.70;;
46158;SDS011;31888;44.512;26.104;2022-09-09T01:23:10;20.65;;;11.90;;
46158;SDS011;31888;44.512;26.104;2022-09-09T01:26:03;23.67;;;13.85;;
46158;SDS011;31888;44.512;26.104;2022-09-09T01:28:21;22.17;;;14.30;;
46158;SDS011;31888;44.512;26.104;2022-09-09T01:30:38;19.23;;;13.90;;
46158;SDS011;31888;44.512;26.104;2022-09-09T01:32:48;23.75;;;14.45;;
46158;SDS011;31888;44.512;26.104;2022-09-09T01:34:54;22.88;;;13.25;;
46158;SDS011;31888;44.512;26.104;2022-09-09T01:36:59;25.58;;;14.10;;
46158;SDS011;31888;44.512;26.104;2022-09-09T01:39:07;26.30;;;14.20;;
46158;SDS011;31888;44.512;26.104;2022-09-09T01:41:13;21.30;;;13.38;;
46158;SDS011;31888;44.512;26.104;2022-09-09T01:43:30;19.05;;;14.13;;
46158;SDS011;31888;44.512;26.104;2022-09-09T01:45:35;22.20;;;14.52;;
46158;SDS011;31888;44.512;26.104;2022-09-09T01:47:41;24.60;;;14.45;;
46158;SDS011;31888;44.512;26.104;2022-09-09T01:50:04;32.53;;;15.02;;
46158;SDS011;31888;44.512;26.104;2022-09-09T01:52:11;23.52;;;15.05;;
46158;SDS011;31888;44.512;26.104;2022-09-09T01:54:15;30.80;;;15.50;;
46158;SDS011;31888;44.512;26.104;2022-09-09T01:56:25;25.40;;;14.65;;
46158;SDS011;31888;44.512;26.104;2022-09-09T01:58:43;21.85;;;12.65;;
46158;SDS011;31888;44.512;26.104;2022-09-09T02:01:01;17.83;;;11.40;;
46158;SDS011;31888;44.512;26.104;2022-09-09T02:03:12;18.00;;;10.75;;
46158;SDS011;31888;44.512;26.104;2022-09-09T02:05:31;17.45;;;11.02;;
46158;SDS011;31888;44.512;26.104;2022-09-09T02:07:46;16.10;;;11.30;;
46158;SDS011;31888;44.512;26.104;2022-09-09T02:10:09;16.48;;;10.93;;
46158;SDS011;31888;44.512;26.104;2022-09-09T02:12:23;19.73;;;12.60;;
46158;SDS011;31888;44.512;26.104;2022-09-09T02:14:33;25.23;;;13.18;;
46158;SDS011;31888;44.512;26.104;2022-09-09T02:16:42;21.48;;;12.82;;
46158;SDS011;31888;44.512;26.104;2022-09-09T02:18:51;26.83;;;12.98;;
46158;SDS011;31888;44.512;26.104;2022-09-09T02:21:11;20.65;;;13.02;;
46158;SDS011;31888;44.512;26.104;2022-09-09T02:23:16;31.00;;;12.02;;
46158;SDS011;31888;44.512;26.104;2022-09-09T02:25:26;20.73;;;12.40;;
46158;SDS011;31888;44.512;26.104;2022-09-09T02:27:43;15.85;;;11.50;;
46158;SDS011;31888;44.512;26.104;2022-09-09T02:29:50;17.60;;;11.30;;
46158;SDS011;31888;44.512;26.104;2022-09-09T02:32:08;15.77;;;11.02;;
46158;SDS011;31888;44.512;26.104;2022-09-09T02:34:17;14.45;;;10.25;;
46158;SDS011;31888;44.512;26.104;2022-09-09T02:36:24;19.60;;;11.13;;
46158;SDS011;31888;44.512;26.104;2022-09-09T02:38:34;19.08;;;11.00;;
46158;SDS011;31888;44.512;26.104;2022-09-09T02:40:47;18.67;;;9.88;;
46158;SDS011;31888;44.512;26.104;2022-09-09T02:42:53;13.25;;;9.48;;
46158;SDS011;31888;44.512;26.104;2022-09-09T02:44:58;12.95;;;9.52;;
46158;SDS011;31888;44.512;26.104;2022-09-09T02:47:07;17.00;;;10.32;;
46158;SDS011;31888;44.512;26.104;2022-09-09T02:49:25;19.23;;;9.30;;
46158;SDS011;31888;44.512;26.104;2022-09-09T02:51:39;13.05;;;9.65;;
46158;SDS011;31888;44.512;26.104;2022-09-09T02:53:51;15.30;;;9.02;;
46158;SDS011;31888;44.512;26.104;2022-09-09T02:56:02;19.95;;;9.95;;
46158;SDS011;31888;44.512;26.104;2022-09-09T02:58:13;18.90;;;10.32;;
46158;SDS011;31888;44.512;26.104;2022-09-09T03:00:28;19.10;;;10.65;;
46158;SDS011;31888;44.512;26.104;2022-09-09T03:02:36;21.23;;;11.15;;
46158;SDS011;31888;44.512;26.104;2022-09-09T03:04:42;15.73;;;10.68;;
46158;SDS011;31888;44.512;26.104;2022-09-09T03:06:48;19.92;;;11.00;;
46158;SDS011;31888;44.512;26.104;2022-09-09T03:08:55;16.38;;;12.05;;
46158;SDS011;31888;44.512;26.104;2022-09-09T03:11:01;26.48;;;11.93;;
46158;SDS011;31888;44.512;26.104;2022-09-09T03:13:09;26.92;;;12.27;;
46158;SDS011;31888;44.512;26.104;2022-09-09T03:15:17;26.65;;;11.57;;
46158;SDS011;31888;44.512;26.104;2022-09-09T03:17:21;19.38;;;10.93;;
46158;SDS011;31888;44.512;26.104;2022-09-09T03:19:29;17.42;;;10.57;;
46158;SDS011;31888;44.512;26.104;2022-09-09T03:21:34;16.40;;;9.82;;
46158;SDS011;31888;44.512;26.104;2022-09-09T03:23:38;20.80;;;11.55;;
46158;SDS011;31888;44.512;26.104;2022-09-09T03:25:46;20.98;;;12.35;;
46158;SDS011;31888;44.512;26.104;2022-09-09T03:27:55;24.10;;;12.02;;
46158;SDS011;31888;44.512;26.104;2022-09-09T03:30:00;18.08;;;12.07;;
46158;SDS011;31888;44.512;26.104;2022-09-09T03:32:07;16.75;;;11.40;;
46158;SDS011;31888;44.512;26.104;2022-09-09T03:34:13;15.63;;;11.15;;
46158;SDS011;31888;44.512;26.104;2022-09-09T03:36:18;20.27;;;10.70;;
46158;SDS011;31888;44.512;26.104;2022-09-09T03:38:22;23.95;;;12.10;;
46158;SDS011;31888;44.512;26.104;2022-09-09T03:40:27;21.45;;;12.63;;
46158;SDS011;31888;44.512;26.104;2022-09-09T03:42:31;20.20;;;11.60;;
46158;SDS011;31888;44.512;26.104;2022-09-09T03:44:35;20.20;;;12.68;;
46158;SDS011;31888;44.512;26.104;2022-09-09T03:46:40;23.65;;;13.73;;
46158;SDS011;31888;44.512;26.104;2022-09-09T03:48:46;24.05;;;13.75;;
46158;SDS011;31888;44.512;26.104;2022-09-09T03:50:51;23.98;;;14.40;;
46158;SDS011;31888;44.512;26.104;2022-09-09T03:52:56;18.77;;;13.88;;
46158;SDS011;31888;44.512;26.104;2022-09-09T03:55:01;20.13;;;15.02;;
46158;SDS011;31888;44.512;26.104;2022-09-09T03:57:05;20.80;;;14.50;;
46158;SDS011;31888;44.512;26.104;2022-09-09T03:59:09;23.83;;;14.30;;
46158;SDS011;31888;44.512;26.104;2022-09-09T04:01:14;22.13;;;13.43;;
46158;SDS011;31888;44.512;26.104;2022-09-09T04:03:21;23.42;;;13.90;;
46158;SDS011;31888;44.512;26.104;2022-09-09T04:05:31;21.75;;;14.10;;
46158;SDS011;31888;44.512;26.104;2022-09-09T04:07:36;19.50;;;12.63;;
46158;SDS011;31888;44.512;26.104;2022-09-09T04:09:41;21.15;;;12.43;;
46158;SDS011;31888;44.512;26.104;2022-09-09T04:11:45;21.58;;;14.10;;
46158;SDS011;31888;44.512;26.104;2022-09-09T04:13:49;24.48;;;14.07;;
46158;SDS011;31888;44.512;26.104;2022-09-09T04:15:55;22.48;;;12.55;;
46158;SDS011;31888;44.512;26.104;2022-09-09T04:18:00;27.67;;;12.13;;
46158;SDS011;31888;44.512;26.104;2022-09-09T04:20:05;22.30;;;13.68;;
46158;SDS011;31888;44.512;26.104;2022-09-09T04:22:15;23.00;;;13.93;;
46158;SDS011;31888;44.512;26.104;2022-09-09T04:24:19;16.05;;;11.77;;
46158;SDS011;31888;44.512;26.104;2022-09-09T04:26:24;22.85;;;11.15;;
46158;SDS011;31888;44.512;26.104;2022-09-09T04:28:30;21.60;;;13.00;;
46158;SDS011;31888;44.512;26.104;2022-09-09T04:30:35;22.90;;;11.93;;
46158;SDS011;31888;44.512;26.104;2022-09-09T04:32:42;19.73;;;10.93;;
46158;SDS011;31888;44.512;26.104;2022-09-09T04:34:46;21.05;;;12.40;;
46158;SDS011;31888;44.512;26.104;2022-09-09T04:36:50;18.20;;;11.52;;
46158;SDS011;31888;44.512;26.104;2022-09-09T04:38:57;17.80;;;10.85;;
46158;SDS011;31888;44.512;26.104;2022-09-09T04:41:01;22.27;;;10.77;;
46158;SDS011;31888;44.512;26.104;2022-09-09T04:43:07;21.83;;;11.77;;
46158;SDS011;31888;44.512;26.104;2022-09-09T04:45:17;23.88;;;11.48;;
46158;SDS011;31888;44.512;26.104;2022-09-09T04:47:22;23.15;;;11.88;;
46158;SDS011;31888;44.512;26.104;2022-09-09T04:49:26;19.17;;;10.55;;
46158;SDS011;31888;44.512;26.104;2022-09-09T04:51:30;28.90;;;11.02;;
46158;SDS011;31888;44.512;26.104;2022-09-09T04:53:34;17.95;;;11.65;;
46158;SDS011;31888;44.512;26.104;2022-09-09T04:55:41;18.15;;;9.45;;
46158;SDS011;31888;44.512;26.104;2022-09-09T04:57:45;17.10;;;9.77;;
46158;SDS011;31888;44.512;26.104;2022-09-09T04:59:50;25.88;;;10.50;;
46158;SDS011;31888;44.512;26.104;2022-09-09T05:01:55;39.22;;;10.57;;
46158;SDS011;31888;44.512;26.104;2022-09-09T05:04:02;27.73;;;9.60;;
46158;SDS011;31888;44.512;26.104;2022-09-09T05:06:18;21.90;;;9.65;;
46158;SDS011;31888;44.512;26.104;2022-09-09T05:08:28;19.23;;;9.63;;
46158;SDS011;31888;44.512;26.104;2022-09-09T05:10:33;18.90;;;8.95;;
46158;SDS011;31888;44.512;26.104;2022-09-09T05:12:41;15.48;;;9.50;;
46158;SDS011;31888;44.512;26.104;2022-09-09T05:14:46;14.93;;;8.50;;
46158;SDS011;31888;44.512;26.104;2022-09-09T05:16:50;16.50;;;9.32;;
46158;SDS011;31888;44.512;26.104;2022-09-09T05:18:56;15.32;;;8.10;;
46158;SDS011;31888;44.512;26.104;2022-09-09T05:21:09;14.30;;;8.05;;
46158;SDS011;31888;44.512;26.104;2022-09-09T05:23:14;20.42;;;8.95;;
46158;SDS011;31888;44.512;26.104;2022-09-09T05:25:18;13.57;;;7.47;;
46158;SDS011;31888;44.512;26.104;2022-09-09T05:27:24;15.55;;;7.82;;
46158;SDS011;31888;44.512;26.104;2022-09-09T05:29:30;13.98;;;7.57;;
46158;SDS011;31888;44.512;26.104;2022-09-09T05:31:37;13.32;;;8.05;;
46158;SDS011;31888;44.512;26.104;2022-09-09T05:33:47;17.98;;;8.57;;
46158;SDS011;31888;44.512;26.104;2022-09-09T05:35:56;14.73;;;8.18;;
46158;SDS011;31888;44.512;26.104;2022-09-09T05:38:02;12.75;;;7.72;;
46158;SDS011;31888;44.512;26.104;2022-09-09T05:40:07;14.73;;;8.38;;
46158;SDS011;31888;44.512;26.104;2022-09-09T05:42:14;14.15;;;7.68;;
46158;SDS011;31888;44.512;26.104;2022-09-09T05:44:19;14.52;;;7.30;;
46158;SDS011;31888;44.512;26.104;2022-09-09T05:46:27;15.15;;;7.78;;
46158;SDS011;31888;44.512;26.104;2022-09-09T05:48:32;12.93;;;7.20;;
46158;SDS011;31888;44.512;26.104;2022-09-09T05:50:37;17.42;;;8.00;;
46158;SDS011;31888;44.512;26.104;2022-09-09T05:52:41;17.98;;;8.32;;
46158;SDS011;31888;44.512;26.104;2022-09-09T05:54:47;13.80;;;7.45;;
46158;SDS011;31888;44.512;26.104;2022-09-09T05:56:51;19.13;;;7.82;;
46158;SDS011;31888;44.512;26.104;2022-09-09T05:58:56;13.23;;;7.82;;
46158;SDS011;31888;44.512;26.104;2022-09-09T06:01:03;11.93;;;7.38;;
46158;SDS011;31888;44.512;26.104;2022-09-09T06:03:11;14.95;;;7.35;;
46158;SDS011;31888;44.512;26.104;2022-09-09T06:05:16;17.90;;;8.27;;
46158;SDS011;31888;44.512;26.104;2022-09-09T06:07:21;17.35;;;7.10;;
46158;SDS011;31888;44.512;26.104;2022-09-09T06:09:25;15.00;;;7.10;;
46158;SDS011;31888;44.512;26.104;2022-09-09T06:11:30;19.98;;;8.68;;
46158;SDS011;31888;44.512;26.104;2022-09-09T06:13:36;13.52;;;6.78;;
46158;SDS011;31888;44.512;26.104;2022-09-09T06:15:48;13.70;;;7.82;;
46158;SDS011;31888;44.512;26.104;2022-09-09T06:17:54;24.92;;;7.93;;
46158;SDS011;31888;44.512;26.104;2022-09-09T06:20:00;14.85;;;6.10;;
46158;SDS011;31888;44.512;26.104;2022-09-09T06:22:06;16.20;;;5.95;;
46158;SDS011;31888;44.512;26.104;2022-09-09T06:24:15;10.98;;;6.05;;
46158;SDS011;31888;44.512;26.104;2022-09-09T06:26:22;10.30;;;5.32;;
46158;SDS011;31888;44.512;26.104;2022-09-09T06:28:28;11.68;;;5.25;;
46158;SDS011;31888;44.512;26.104;2022-09-09T06:30:32;15.95;;;6.18;;
46158;SDS011;31888;44.512;26.104;2022-09-09T06:32:36;14.25;;;6.20;;
46158;SDS011;31888;44.512;26.104;2022-09-09T06:34:42;12.10;;;6.15;;
46158;SDS011;31888;44.512;26.104;2022-09-09T06:36:49;18.40;;;7.20;;
46158;SDS011;31888;44.512;26.104;2022-09-09T06:38:55;21.02;;;6.25;;
46158;SDS011;31888;44.512;26.104;2022-09-09T06:40:59;14.45;;;5.90;;
46158;SDS011;31888;44.512;26.104;2022-09-09T06:43:04;17.80;;;6.22;;
46158;SDS011;31888;44.512;26.104;2022-09-09T06:47:24;13.45;;;5.90;;
46158;SDS011;31888;44.512;26.104;2022-09-09T06:49:31;11.88;;;6.40;;
46158;SDS011;31888;44.512;26.104;2022-09-09T06:51:37;9.90;;;5.75;;
46158;SDS011;31888;44.512;26.104;2022-09-09T06:53:49;13.18;;;6.40;;
46158;SDS011;31888;44.512;26.104;2022-09-09T06:55:56;15.07;;;6.47;;
46158;SDS011;31888;44.512;26.104;2022-09-09T06:58:01;11.70;;;5.80;;
46158;SDS011;31888;44.512;26.104;2022-09-09T07:00:06;17.42;;;6.45;;
46158;SDS011;31888;44.512;26.104;2022-09-09T07:02:11;12.60;;;6.15;;
46158;SDS011;31888;44.512;26.104;2022-09-09T07:04:17;14.88;;;6.07;;
46158;SDS011;31888;44.512;26.104;2022-09-09T07:06:22;13.07;;;6.25;;
46158;SDS011;31888;44.512;26.104;2022-09-09T07:08:27;16.63;;;5.80;;
46158;SDS011;31888;44.512;26.104;2022-09-09T07:10:34;13.45;;;6.65;;
46158;SDS011;31888;44.512;26.104;2022-09-09T07:12:39;12.60;;;6.10;;
46158;SDS011;31888;44.512;26.104;2022-09-09T07:14:45;15.13;;;6.53;;
46158;SDS011;31888;44.512;26.104;2022-09-09T07:16:50;14.68;;;5.90;;
46158;SDS011;31888;44.512;26.104;2022-09-09T07:19:00;13.43;;;6.18;;
46158;SDS011;31888;44.512;26.104;2022-09-09T07:21:05;15.43;;;6.03;;
46158;SDS011;31888;44.512;26.104;2022-09-09T07:23:10;13.80;;;6.55;;
46158;SDS011;31888;44.512;26.104;2022-09-09T07:25:15;13.50;;;5.75;;
46158;SDS011;31888;44.512;26.104;2022-09-09T07:27:23;15.25;;;5.90;;
46158;SDS011;31888;44.512;26.104;2022-09-09T07:29:31;20.52;;;6.55;;
46158;SDS011;31888;44.512;26.104;2022-09-09T07:31:43;15.95;;;5.85;;
46158;SDS011;31888;44.512;26.104;2022-09-09T07:33:54;9.88;;;5.95;;
46158;SDS011;31888;44.512;26.104;2022-09-09T07:36:02;16.25;;;6.60;;
46158;SDS011;31888;44.512;26.104;2022-09-09T07:38:09;16.30;;;6.20;;
46158;SDS011;31888;44.512;26.104;2022-09-09T07:40:14;15.07;;;6.50;;
46158;SDS011;31888;44.512;26.104;2022-09-09T07:42:20;15.30;;;6.63;;
46158;SDS011;31888;44.512;26.104;2022-09-09T07:44:28;11.45;;;6.38;;
46158;SDS011;31888;44.512;26.104;2022-09-09T07:46:39;21.58;;;7.32;;
46158;SDS011;31888;44.512;26.104;2022-09-09T07:48:45;15.02;;;6.75;;
46158;SDS011;31888;44.512;26.104;2022-09-09T07:51:02;17.08;;;6.85;;
46158;SDS011;31888;44.512;26.104;2022-09-09T07:53:09;19.33;;;6.43;;
46158;SDS011;31888;44.512;26.104;2022-09-09T07:55:16;13.70;;;6.55;;
46158;SDS011;31888;44.512;26.104;2022-09-09T07:57:23;14.93;;;5.80;;
46158;SDS011;31888;44.512;26.104;2022-09-09T07:59:35;14.38;;;6.38;;
46158;SDS011;31888;44.512;26.104;2022-09-09T08:01:41;14.55;;;6.28;;
46158;SDS011;31888;44.512;26.104;2022-09-09T08:03:52;16.70;;;6.60;;
46158;SDS011;31888;44.512;26.104;2022-09-09T08:06:00;14.70;;;6.47;;
46158;SDS011;31888;44.512;26.104;2022-09-09T08:08:06;12.32;;;5.82;;
46158;SDS011;31888;44.512;26.104;2022-09-09T08:10:13;9.35;;;6.20;;
46158;SDS011;31888;44.512;26.104;2022-09-09T08:12:25;14.27;;;6.40;;
46158;SDS011;31888;44.512;26.104;2022-09-09T08:14:31;22.05;;;6.93;;
46158;SDS011;31888;44.512;26.104;2022-09-09T08:16:37;12.50;;;5.85;;
46158;SDS011;31888;44.512;26.104;2022-09-09T08:18:43;17.42;;;7.28;;
46158;SDS011;31888;44.512;26.104;2022-09-09T08:20:48;15.57;;;6.80;;
46158;SDS011;31888;44.512;26.104;2022-09-09T08:22:52;15.50;;;6.00;;
46158;SDS011;31888;44.512;26.104;2022-09-09T08:25:01;11.98;;;6.65;;
46158;SDS011;31888;44.512;26.104;2022-09-09T08:27:11;13.82;;;6.25;;
46158;SDS011;31888;44.512;26.104;2022-09-09T08:29:18;12.18;;;6.10;;
46158;SDS011;31888;44.512;26.104;2022-09-09T08:31:23;16.73;;;6.50;;
46158;SDS011;31888;44.512;26.104;2022-09-09T08:33:30;11.82;;;6.05;;
46158;SDS011;31888;44.512;26.104;2022-09-09T08:35:35;9.40;;;5.75;;
46158;SDS011;31888;44.512;26.104;2022-09-09T08:37:40;10.27;;;5.20;;
46158;SDS011;31888;44.512;26.104;2022-09-09T08:39:45;13.25;;;6.47;;
46158;SDS011;31888;44.512;26.104;2022-09-09T08:42:05;13.50;;;6.78;;
46158;SDS011;31888;44.512;26.104;2022-09-09T08:44:29;11.55;;;6.43;;
46158;SDS011;31888;44.512;26.104;2022-09-09T08:46:52;17.88;;;6.18;;
46158;SDS011;31888;44.512;26.104;2022-09-09T08:49:03;12.65;;;6.38;;
46158;SDS011;31888;44.512;26.104;2022-09-09T08:51:15;13.00;;;6.00;;
46158;SDS011;31888;44.512;26.104;2022-09-09T08:53:21;16.33;;;6.75;;
46158;SDS011;31888;44.512;26.104;2022-09-09T08:55:34;13.32;;;6.05;;
46158;SDS011;31888;44.512;26.104;2022-09-09T08:57:43;14.25;;;5.90;;
46158;SDS011;31888;44.512;26.104;2022-09-09T08:59:50;15.30;;;6.70;;
46158;SDS011;31888;44.512;26.104;2022-09-09T09:01:59;16.25;;;7.00;;
46158;SDS011;31888;44.512;26.104;2022-09-09T09:04:29;11.93;;;5.95;;
46158;SDS011;31888;44.512;26.104;2022-09-09T09:06:47;13.73;;;6.22;;
46158;SDS011;31888;44.512;26.104;2022-09-09T09:08:59;10.00;;;6.75;;
46158;SDS011;31888;44.512;26.104;2022-09-09T09:11:07;13.97;;;6.10;;
46158;SDS011;31888;44.512;26.104;2022-09-09T09:13:12;14.05;;;6.55;;
46158;SDS011;31888;44.512;26.104;2022-09-09T09:15:23;16.13;;;6.03;;
46158;SDS011;31888;44.512;26.104;2022-09-09T09:17:34;13.63;;;7.40;;
46158;SDS011;31888;44.512;26.104;2022-09-09T09:19:41;16.58;;;6.50;;
46158;SDS011;31888;44.512;26.104;2022-09-09T09:21:51;13.27;;;5.90;;
46158;SDS011;31888;44.512;26.104;2022-09-09T09:24:00;14.93;;;6.15;;
46158;SDS011;31888;44.512;26.104;2022-09-09T09:26:09;16.50;;;7.20;;
46158;SDS011;31888;44.512;26.104;2022-09-09T09:28:16;17.83;;;7.10;;
46158;SDS011;31888;44.512;26.104;2022-09-09T09:30:31;12.60;;;6.50;;
46158;SDS011;31888;44.512;26.104;2022-09-09T09:32:48;12.48;;;6.10;;
46158;SDS011;31888;44.512;26.104;2022-09-09T09:34:56;8.20;;;6.40;;
46158;SDS011;31888;44.512;26.104;2022-09-09T09:37:07;13.55;;;6.10;;
46158;SDS011;31888;44.512;26.104;2022-09-09T09:39:23;10.85;;;6.13;;
46158;SDS011;31888;44.512;26.104;2022-09-09T09:41:49;14.75;;;6.07;;
46158;SDS011;31888;44.512;26.104;2022-09-09T09:43:56;16.45;;;6.15;;
46158;SDS011;31888;44.512;26.104;2022-09-09T09:46:04;13.93;;;6.63;;
46158;SDS011;31888;44.512;26.104;2022-09-09T09:48:20;11.15;;;6.13;;
46158;SDS011;31888;44.512;26.104;2022-09-09T09:50:25;13.70;;;6.43;;
46158;SDS011;31888;44.512;26.104;2022-09-09T09:52:30;9.38;;;5.53;;
46158;SDS011;31888;44.512;26.104;2022-09-09T09:54:41;14.68;;;6.20;;
46158;SDS011;31888;44.512;26.104;2022-09-09T09:56:46;12.88;;;6.38;;
46158;SDS011;31888;44.512;26.104;2022-09-09T09:58:52;9.80;;;6.45;;
46158;SDS011;31888;44.512;26.104;2022-09-09T10:01:18;14.73;;;6.97;;
46158;SDS011;31888;44.512;26.104;2022-09-09T10:03:28;14.30;;;6.65;;
46158;SDS011;31888;44.512;26.104;2022-09-09T10:05:45;13.20;;;6.45;;
46158;SDS011;31888;44.512;26.104;2022-09-09T10:08:01;17.60;;;6.65;;
46158;SDS011;31888;44.512;26.104;2022-09-09T10:10:15;16.48;;;6.65;;
46158;SDS011;31888;44.512;26.104;2022-09-09T10:12:29;13.63;;;6.53;;
46158;SDS011;31888;44.512;26.104;2022-09-09T10:14:42;15.48;;;6.70;;
46158;SDS011;31888;44.512;26.104;2022-09-09T10:17:00;16.23;;;7.40;;
46158;SDS011;31888;44.512;26.104;2022-09-09T10:19:14;15.02;;;6.68;;
46158;SDS011;31888;44.512;26.104;2022-09-09T10:21:22;12.52;;;6.90;;
46158;SDS011;31888;44.512;26.104;2022-09-09T10:23:48;17.00;;;7.40;;
46158;SDS011;31888;44.512;26.104;2022-09-09T10:26:08;10.57;;;6.73;;
46158;SDS011;31888;44.512;26.104;2022-09-09T10:28:28;12.98;;;6.78;;
46158;SDS011;31888;44.512;26.104;2022-09-09T10:31:00;17.90;;;6.38;;
46158;SDS011;31888;44.512;26.104;2022-09-09T10:33:19;17.27;;;6.50;;
46158;SDS011;31888;44.512;26.104;2022-09-09T10:35:31;14.73;;;6.68;;
46158;SDS011;31888;44.512;26.104;2022-09-09T10:37:53;17.15;;;6.10;;
46158;SDS011;31888;44.512;26.104;2022-09-09T10:40:26;14.93;;;6.80;;
46158;SDS011;31888;44.512;26.104;2022-09-09T10:42:35;10.53;;;6.37;;
46158;SDS011;31888;44.512;26.104;2022-09-09T10:44:53;18.27;;;7.35;;
46158;SDS011;31888;44.512;26.104;2022-09-09T10:47:33;16.35;;;7.00;;
46158;SDS011;31888;44.512;26.104;2022-09-09T10:50:01;15.18;;;6.50;;
46158;SDS011;31888;44.512;26.104;2022-09-09T10:52:23;13.65;;;6.20;;
46158;SDS011;31888;44.512;26.104;2022-09-09T10:54:38;13.77;;;6.38;;
46158;SDS011;31888;44.512;26.104;2022-09-09T10:56:55;12.68;;;6.60;;
46158;SDS011;31888;44.512;26.104;2022-09-09T10:59:04;14.40;;;7.07;;
46158;SDS011;31888;44.512;26.104;2022-09-09T11:01:15;14.73;;;6.50;;
46158;SDS011;31888;44.512;26.104;2022-09-09T11:03:24;11.23;;;6.10;;
46158;SDS011;31888;44.512;26.104;2022-09-09T11:05:35;15.50;;;6.38;;
46158;SDS011;31888;44.512;26.104;2022-09-09T11:07:46;11.80;;;6.60;;
46158;SDS011;31888;44.512;26.104;2022-09-09T11:09:57;16.50;;;6.43;;
46158;SDS011;31888;44.512;26.104;2022-09-09T11:12:05;13.50;;;6.20;;
46158;SDS011;31888;44.512;26.104;2022-09-09T11:14:19;11.77;;;6.47;;
46158;SDS011;31888;44.512;26.104;2022-09-09T11:16:30;12.85;;;6.75;;
46158;SDS011;31888;44.512;26.104;2022-09-09T11:18:44;13.60;;;5.82;;
46158;SDS011;31888;44.512;26.104;2022-09-09T11:20:54;16.35;;;6.60;;
46158;SDS011;31888;44.512;26.104;2022-09-09T11:23:04;8.45;;;6.28;;
46158;SDS011;31888;44.512;26.104;2022-09-09T11:25:16;10.50;;;5.88;;
46158;SDS011;31888;44.512;26.104;2022-09-09T11:27:25;16.83;;;6.38;;
46158;SDS011;31888;44.512;26.104;2022-09-09T11:29:39;16.85;;;6.18;;
46158;SDS011;31888;44.512;26.104;2022-09-09T11:32:10;16.40;;;6.85;;
46158;SDS011;31888;44.512;26.104;2022-09-09T11:34:39;8.30;;;6.05;;
46158;SDS011;31888;44.512;26.104;2022-09-09T11:44:10;9.43;;;6.22;;
46158;SDS011;31888;44.512;26.104;2022-09-09T11:46:16;14.93;;;6.88;;
46158;SDS011;31888;44.512;26.104;2022-09-09T11:48:34;15.50;;;6.70;;
46158;SDS011;31888;44.512;26.104;2022-09-09T11:50:40;13.70;;;6.15;;
46158;SDS011;31888;44.512;26.104;2022-09-09T11:52:47;18.00;;;6.88;;
46158;SDS011;31888;44.512;26.104;2022-09-09T11:54:54;10.07;;;5.93;;
46158;SDS011;31888;44.512;26.104;2022-09-09T11:57:00;12.38;;;5.90;;
46158;SDS011;31888;44.512;26.104;2022-09-09T11:59:19;18.35;;;6.38;;
46158;SDS011;31888;44.512;26.104;2022-09-09T12:01:28;11.85;;;6.53;;
46158;SDS011;31888;44.512;26.104;2022-09-09T12:03:39;16.75;;;9.65;;
46158;SDS011;31888;44.512;26.104;2022-09-09T12:05:47;9.68;;;6.18;;
46158;SDS011;31888;44.512;26.104;2022-09-09T12:07:55;10.85;;;6.72;;
46158;SDS011;31888;44.512;26.104;2022-09-09T12:10:03;14.32;;;5.90;;
46158;SDS011;31888;44.512;26.104;2022-09-09T12:12:26;9.27;;;5.78;;
46158;SDS011;31888;44.512;26.104;2022-09-09T12:14:36;13.18;;;6.13;;
46158;SDS011;31888;44.512;26.104;2022-09-09T12:16:43;9.63;;;6.28;;
46158;SDS011;31888;44.512;26.104;2022-09-09T12:18:48;11.77;;;6.82;;
46158;SDS011;31888;44.512;26.104;2022-09-09T12:20:54;15.38;;;6.50;;
46158;SDS011;31888;44.512;26.104;2022-09-09T12:23:17;13.43;;;6.78;;
46158;SDS011;31888;44.512;26.104;2022-09-09T12:25:30;14.70;;;6.47;;
46158;SDS011;31888;44.512;26.104;2022-09-09T12:27:44;13.35;;;6.18;;
46158;SDS011;31888;44.512;26.104;2022-09-09T12:30:01;13.30;;;6.13;;
46158;SDS011;31888;44.512;26.104;2022-09-09T12:32:12;10.63;;;6.68;;
46158;SDS011;31888;44.512;26.104;2022-09-09T12:34:32;13.30;;;6.40;;
46158;SDS011;31888;44.512;26.104;2022-09-09T12:36:44;14.75;;;6.93;;
46158;SDS011;31888;44.512;26.104;2022-09-09T12:38:58;20.40;;;7.40;;
46158;SDS011;31888;44.512;26.104;2022-09-09T12:41:21;16.20;;;7.10;;
46158;SDS011;31888;44.512;26.104;2022-09-09T12:43:27;12.38;;;5.90;;
46158;SDS011;31888;44.512;26.104;2022-09-09T12:45:32;11.32;;;6.70;;
46158;SDS011;31888;44.512;26.104;2022-09-09T12:47:38;10.48;;;6.30;;
46158;SDS011;31888;44.512;26.104;2022-09-09T12:49:49;13.35;;;6.13;;
46158;SDS011;31888;44.512;26.104;2022-09-09T12:51:55;14.95;;;6.70;;